createdAt,value
2022-09-22T00:01:34.091Z,2.57
2022-09-22T00:04:07.790Z,2.33
2022-09-22T00:06:39.744Z,3.00
2022-09-22T00:09:10.370Z,3.00
2022-09-22T00:11:42.522Z,2.77
2022-09-22T00:14:12.968Z,2.73
2022-09-22T00:16:43.216Z,3.20
2022-09-22T00:19:13.828Z,2.97
2022-09-22T00:21:41.808Z,3.20
2022-09-22T00:24:10.145Z,2.97
2022-09-22T00:26:40.463Z,3.00
2022-09-22T00:29:09.881Z,3.20
2022-09-22T00:31:39.374Z,2.70
2022-09-22T00:34:08.542Z,2.53
2022-09-22T00:36:36.894Z,3.17
2022-09-22T00:39:05.188Z,3.07
2022-09-22T00:41:36.427Z,2.47
2022-09-22T00:44:31.624Z,2.20
2022-09-22T00:47:02.791Z,2.43
2022-09-22T00:49:37.993Z,2.33
2022-09-22T00:52:06.516Z,2.40
2022-09-22T00:54:35.629Z,2.30
2022-09-22T00:57:09.662Z,3.00
2022-09-22T00:59:40.045Z,2.70
2022-09-22T01:02:08.310Z,2.70
2022-09-22T01:04:37.130Z,2.87
2022-09-22T01:07:07.142Z,2.90
2022-09-22T01:09:35.311Z,2.80
2022-09-22T01:12:05.166Z,2.80
2022-09-22T01:14:50.898Z,2.87
2022-09-22T01:17:27.756Z,3.03
2022-09-22T01:20:19.837Z,2.90
2022-09-22T01:23:25.297Z,3.00
2022-09-22T01:26:15.437Z,3.37
2022-09-22T01:29:01.565Z,3.13
2022-09-22T01:31:38.979Z,2.87
2022-09-22T01:34:13.045Z,3.27
2022-09-22T01:36:48.174Z,3.17
2022-09-22T01:39:21.164Z,3.40
2022-09-22T01:41:54.956Z,3.23
2022-09-22T01:44:30.179Z,3.10
2022-09-22T01:47:06.454Z,3.00
2022-09-22T01:49:39.361Z,3.13
2022-09-22T01:52:13.126Z,2.77
2022-09-22T01:54:45.469Z,3.00
2022-09-22T01:57:18.946Z,3.30
2022-09-22T01:59:52.981Z,2.87
2022-09-22T02:02:28.044Z,3.33
2022-09-22T02:04:59.772Z,2.50
2022-09-22T02:07:31.129Z,3.00
2022-09-22T02:10:04.176Z,3.13
2022-09-22T02:12:32.482Z,2.70
2022-09-22T02:15:00.426Z,2.97
2022-09-22T02:17:34.975Z,2.60
2022-09-22T02:20:07.252Z,2.63
2022-09-22T02:22:35.906Z,3.07
2022-09-22T02:25:04.158Z,2.43
2022-09-22T02:27:37.000Z,2.80
2022-09-22T02:30:09.239Z,2.93
2022-09-22T02:32:42.594Z,2.30
2022-09-22T02:35:11.546Z,2.67
2022-09-22T02:37:45.476Z,2.57
2022-09-22T02:40:23.494Z,2.27
2022-09-22T02:43:00.886Z,2.43
2022-09-22T02:45:33.706Z,2.60
2022-09-22T02:48:07.000Z,2.40
2022-09-22T02:50:36.397Z,2.50
2022-09-22T02:53:12.574Z,2.17
2022-09-22T02:55:40.742Z,2.60
2022-09-22T02:58:08.758Z,2.63
2022-09-22T03:00:37.328Z,2.53
2022-09-22T03:03:06.743Z,2.70
2022-09-22T03:05:34.725Z,2.57
2022-09-22T03:08:03.255Z,2.57
2022-09-22T03:10:31.222Z,2.90
2022-09-22T03:13:16.030Z,2.97
2022-09-22T03:15:45.681Z,2.70
2022-09-22T03:18:15.454Z,2.80
2022-09-22T03:20:43.763Z,2.93
2022-09-22T03:23:11.872Z,3.10
2022-09-22T03:25:40.195Z,3.20
2022-09-22T03:28:08.333Z,2.70
2022-09-22T03:30:38.382Z,2.80
2022-09-22T03:33:06.420Z,2.77
2022-09-22T03:35:35.833Z,3.33
2022-09-22T03:38:03.947Z,3.20
2022-09-22T03:40:32.263Z,3.47
2022-09-22T03:43:00.387Z,2.90
2022-09-22T03:45:28.446Z,3.77
2022-09-22T03:47:56.599Z,3.40
2022-09-22T03:50:24.554Z,3.47
2022-09-22T03:52:53.936Z,3.93
2022-09-22T03:55:21.933Z,3.50
2022-09-22T03:57:49.904Z,3.90
2022-09-22T04:00:17.958Z,3.87
2022-09-22T04:02:46.177Z,3.90
2022-09-22T04:05:14.219Z,4.23
2022-09-22T04:07:42.215Z,4.07
2022-09-22T04:10:12.209Z,4.17
2022-09-22T04:12:40.238Z,4.20
2022-09-22T04:15:09.003Z,4.00
2022-09-22T04:17:37.888Z,4.17
2022-09-22T04:20:08.121Z,3.93
2022-09-22T04:22:36.210Z,4.10
2022-09-22T04:25:04.420Z,4.40
2022-09-22T04:27:33.797Z,4.73
2022-09-22T04:30:03.113Z,3.83
2022-09-22T04:32:31.167Z,3.83
2022-09-22T04:34:59.448Z,4.57
2022-09-22T04:37:27.478Z,4.43
2022-09-22T04:39:55.633Z,4.40
2022-09-22T04:42:23.867Z,3.80
2022-09-22T04:44:57.204Z,3.90
2022-09-22T04:47:25.226Z,4.00
2022-09-22T04:49:53.569Z,4.17
2022-09-22T04:52:21.571Z,4.17
2022-09-22T04:54:49.570Z,4.67
2022-09-22T04:57:20.480Z,4.10
2022-09-22T04:59:48.708Z,4.23
2022-09-22T05:02:18.521Z,4.20
2022-09-22T05:04:47.269Z,4.10
2022-09-22T05:07:16.349Z,3.80
2022-09-22T05:09:44.427Z,4.17
2022-09-22T05:12:12.394Z,4.00
2022-09-22T05:14:41.046Z,3.50
2022-09-22T05:17:10.079Z,3.87
2022-09-22T05:19:39.466Z,4.07
2022-09-22T05:22:07.419Z,4.13
2022-09-22T05:24:35.410Z,4.33
2022-09-22T05:27:04.790Z,4.50
2022-09-22T05:29:32.885Z,4.13
2022-09-22T05:32:01.117Z,4.13
2022-09-22T05:34:29.259Z,4.03
2022-09-22T05:36:59.036Z,3.80
2022-09-22T05:39:27.031Z,4.00
2022-09-22T05:41:55.007Z,4.10
2022-09-22T05:44:23.664Z,4.17
2022-09-22T05:46:51.980Z,4.67
2022-09-22T05:49:19.991Z,3.60
2022-09-22T05:51:48.520Z,4.00
2022-09-22T05:54:22.547Z,4.20
2022-09-22T05:56:51.238Z,3.93
2022-09-22T05:59:19.298Z,4.10
2022-09-22T06:01:47.322Z,4.00
2022-09-22T06:04:15.528Z,3.83
2022-09-22T06:06:43.616Z,3.97
2022-09-22T06:09:11.671Z,3.60
2022-09-22T06:11:41.080Z,3.87
2022-09-22T06:14:09.154Z,5.17
2022-09-22T06:16:37.199Z,3.87
2022-09-22T06:19:05.794Z,3.87
2022-09-22T06:21:33.930Z,3.90
2022-09-22T06:24:02.152Z,3.70
2022-09-22T06:26:30.165Z,3.20
2022-09-22T06:28:59.611Z,3.57
2022-09-22T06:31:27.738Z,3.53
2022-09-22T06:33:55.805Z,3.30
2022-09-22T06:36:30.492Z,3.10
2022-09-22T06:38:59.450Z,3.50
2022-09-22T06:41:27.546Z,3.50
2022-09-22T06:43:56.380Z,3.57
2022-09-22T06:46:27.300Z,3.13
2022-09-22T06:48:57.380Z,3.10
2022-09-22T06:51:26.968Z,3.23
2022-09-22T06:53:56.145Z,3.40
2022-09-22T06:56:25.815Z,3.30
2022-09-22T06:59:09.786Z,3.40
2022-09-22T07:01:44.567Z,2.63
2022-09-22T07:04:13.577Z,2.73
2022-09-22T07:06:42.739Z,3.03
2022-09-22T07:09:12.472Z,3.13
2022-09-22T07:11:40.751Z,2.97
2022-09-22T07:14:10.339Z,2.97
2022-09-22T07:16:41.052Z,2.53
2022-09-22T07:19:27.625Z,3.00
2022-09-22T07:21:55.756Z,3.20
2022-09-22T07:24:23.736Z,2.73
2022-09-22T07:26:51.753Z,2.90
2022-09-22T07:29:19.792Z,3.10
2022-09-22T07:31:49.299Z,2.80
2022-09-22T07:34:18.740Z,2.83
2022-09-22T07:36:47.267Z,3.10
2022-09-22T07:39:15.284Z,2.90
2022-09-22T07:41:43.729Z,2.77
2022-09-22T07:44:30.933Z,3.10
2022-09-22T07:47:01.048Z,2.90
2022-09-22T07:49:29.109Z,2.97
2022-09-22T07:51:57.807Z,2.60
2022-09-22T07:54:27.069Z,3.03
2022-09-22T07:56:58.810Z,3.03
2022-09-22T07:59:27.693Z,2.90
2022-09-22T08:01:56.153Z,3.00
2022-09-22T08:04:26.799Z,3.10
2022-09-22T08:06:56.559Z,2.50
2022-09-22T08:09:26.026Z,2.37
2022-09-22T08:11:55.181Z,2.57
2022-09-22T08:14:24.133Z,2.37
2022-09-22T08:16:54.061Z,2.37
2022-09-22T08:19:25.236Z,2.47
2022-09-22T08:21:55.618Z,2.30
2022-09-22T08:24:24.342Z,2.83
2022-09-22T08:26:56.369Z,2.73
2022-09-22T08:29:25.539Z,2.70
2022-09-22T08:31:54.742Z,2.50
2022-09-22T08:34:23.317Z,3.30
2022-09-22T08:36:52.813Z,2.30
2022-09-22T08:39:21.434Z,2.67
2022-09-22T08:42:04.289Z,3.17
2022-09-22T08:44:37.543Z,2.73
2022-09-22T08:47:06.329Z,3.40
2022-09-22T08:49:57.273Z,2.45
2022-09-22T08:52:32.988Z,2.90
2022-09-22T08:55:02.311Z,2.67
2022-09-22T08:58:01.937Z,2.30
2022-09-22T09:00:38.044Z,3.07
2022-09-22T09:03:27.905Z,2.40
2022-09-22T09:06:09.230Z,2.57
2022-09-22T09:09:15.351Z,2.33
2022-09-22T09:11:58.009Z,2.38
2022-09-22T09:14:43.873Z,2.37
2022-09-22T09:17:15.599Z,1.87
2022-09-22T09:19:46.247Z,1.95
2022-09-22T09:22:25.121Z,2.22
2022-09-22T09:27:53.480Z,1.85
2022-09-22T09:30:23.016Z,2.10
2022-09-22T09:32:54.343Z,2.03
2022-09-22T09:35:26.938Z,2.22
2022-09-22T09:37:59.634Z,2.55
2022-09-22T09:40:30.060Z,2.00
2022-09-22T09:43:03.369Z,1.63
2022-09-22T09:45:41.064Z,2.15
2022-09-22T09:48:22.321Z,1.50
2022-09-22T09:50:50.517Z,1.40
2022-09-22T09:53:31.399Z,1.50
2022-09-22T09:56:01.708Z,1.40
2022-09-22T09:58:47.400Z,1.45
2022-09-22T10:01:16.066Z,1.35
2022-09-22T10:03:48.328Z,1.35
2022-09-22T10:06:25.385Z,1.42
2022-09-22T10:08:53.726Z,1.55
2022-09-22T10:11:32.426Z,1.60
2022-09-22T10:14:00.704Z,1.45
2022-09-22T10:16:30.763Z,1.30
2022-09-22T10:19:25.697Z,1.30
2022-09-22T10:21:55.731Z,1.38
2022-09-22T10:24:32.667Z,1.20
2022-09-22T10:27:05.331Z,1.30
2022-09-22T10:29:35.859Z,1.60
2022-09-22T10:32:15.052Z,1.20
2022-09-22T10:37:22.055Z,1.30
2022-09-22T10:39:52.282Z,1.25
2022-09-22T10:42:29.149Z,1.30
2022-09-22T10:45:02.154Z,1.58
2022-09-22T10:47:54.547Z,1.58
2022-09-22T10:50:39.354Z,1.33
2022-09-22T10:53:31.259Z,1.38
2022-09-22T10:56:09.972Z,1.20
2022-09-22T10:58:56.610Z,1.30
2022-09-22T11:01:52.465Z,1.20
2022-09-22T11:04:39.923Z,1.00
2022-09-22T11:07:52.328Z,1.17
2022-09-22T11:10:49.317Z,1.00
2022-09-22T11:13:37.093Z,1.10
2022-09-22T11:16:28.260Z,1.00
2022-09-22T11:19:22.025Z,1.08
2022-09-22T11:22:04.150Z,1.40
2022-09-22T11:24:47.731Z,1.15
2022-09-22T11:27:27.278Z,0.90
2022-09-22T11:30:21.625Z,1.10
2022-09-22T11:33:26.860Z,1.10
2022-09-22T11:36:08.667Z,1.10
2022-09-22T11:38:58.626Z,1.00
2022-09-22T11:41:32.512Z,1.05
2022-09-22T11:44:15.048Z,1.00
2022-09-22T11:46:56.466Z,0.93
2022-09-22T11:49:36.515Z,1.00
2022-09-22T11:52:18.742Z,1.10
2022-09-22T11:55:07.244Z,1.08
2022-09-22T11:57:40.682Z,1.02
2022-09-22T12:00:15.464Z,1.08
2022-09-22T12:02:50.011Z,0.85
2022-09-22T12:05:27.022Z,1.38
2022-09-22T12:08:00.736Z,0.90
2022-09-22T12:10:35.810Z,0.88
2022-09-22T12:13:05.319Z,0.90
2022-09-22T12:15:42.918Z,0.90
2022-09-22T12:18:16.604Z,1.13
2022-09-22T12:20:56.276Z,0.90
2022-09-22T12:23:44.224Z,1.20
2022-09-22T12:26:16.498Z,1.00
2022-09-22T12:28:46.775Z,1.00
2022-09-22T12:31:16.401Z,1.02
2022-09-22T12:33:50.378Z,1.05
2022-09-22T12:36:29.861Z,1.20
2022-09-22T12:39:09.828Z,0.90
2022-09-22T12:41:48.735Z,1.10
2022-09-22T12:44:22.919Z,1.10
2022-09-22T12:46:52.158Z,0.90
2022-09-22T12:49:23.202Z,0.90
2022-09-22T12:51:53.754Z,1.25
2022-09-22T12:54:40.791Z,1.27
2022-09-22T12:57:45.995Z,1.20
2022-09-22T13:00:23.075Z,1.30
2022-09-22T13:02:51.579Z,1.35
2022-09-22T13:05:46.867Z,1.27
2022-09-22T13:08:24.726Z,1.00
2022-09-22T13:10:57.245Z,1.23
2022-09-22T13:13:36.754Z,1.10
2022-09-22T13:16:27.184Z,0.95
2022-09-22T13:19:01.580Z,1.00
2022-09-22T13:21:32.529Z,1.10
2022-09-22T13:24:02.783Z,1.38
2022-09-22T13:26:32.912Z,1.35
2022-09-22T13:29:11.215Z,1.00
2022-09-22T13:31:41.899Z,1.15
2022-09-22T13:34:31.711Z,0.70
2022-09-22T13:37:01.944Z,0.90
2022-09-22T13:39:35.422Z,0.70
2022-09-22T13:42:08.321Z,0.90
2022-09-22T13:44:41.982Z,0.80
2022-09-22T13:47:18.306Z,0.80
2022-09-22T13:49:51.414Z,1.00
2022-09-22T13:52:22.915Z,0.68
2022-09-22T13:54:57.515Z,0.90
2022-09-22T13:57:29.883Z,1.00
2022-09-22T14:00:00.168Z,1.20
2022-09-22T14:02:32.595Z,1.08
2022-09-22T14:05:05.737Z,1.05
2022-09-22T14:07:45.133Z,0.88
2022-09-22T14:10:23.791Z,0.88
2022-09-22T14:12:52.306Z,0.90
2022-09-22T14:15:43.779Z,0.70
2022-09-22T14:18:26.327Z,0.90
2022-09-22T14:20:57.997Z,1.17
2022-09-22T14:23:29.450Z,0.95
2022-09-22T14:25:59.258Z,1.17
2022-09-22T14:28:30.899Z,1.33
2022-09-22T14:30:59.044Z,1.23
2022-09-22T14:33:31.085Z,0.63
2022-09-22T14:36:03.948Z,0.57
2022-09-22T14:38:43.054Z,0.90
2022-09-22T14:41:23.341Z,0.80
2022-09-22T14:43:53.366Z,0.90
2022-09-22T14:46:33.787Z,0.90
2022-09-22T14:49:19.239Z,0.90
2022-09-22T14:51:49.605Z,0.80
2022-09-22T14:54:18.862Z,1.20
2022-09-22T14:56:46.935Z,1.02
2022-09-22T14:59:32.682Z,0.90
2022-09-22T15:02:18.075Z,0.90
2022-09-22T15:04:51.857Z,0.82
2022-09-22T15:07:29.264Z,1.15
2022-09-22T15:09:59.220Z,1.02
2022-09-22T15:12:49.778Z,0.95
2022-09-22T15:15:21.186Z,1.17
2022-09-22T15:18:07.938Z,0.80
2022-09-22T15:20:44.195Z,1.15
2022-09-22T15:23:19.102Z,1.25
2022-09-22T15:25:47.930Z,1.20
2022-09-22T15:28:17.820Z,1.40
2022-09-22T15:30:47.723Z,1.75
2022-09-22T15:33:17.113Z,1.30
2022-09-22T15:35:47.632Z,1.23
2022-09-22T15:38:20.359Z,2.00
2022-09-22T15:40:49.213Z,2.05
2022-09-22T15:43:23.265Z,1.40
2022-09-22T15:46:01.372Z,1.45
2022-09-22T15:48:32.274Z,1.70
2022-09-22T15:51:04.574Z,1.20
2022-09-22T15:53:34.755Z,1.83
2022-09-22T15:56:06.005Z,1.60
2022-09-22T15:58:37.881Z,1.73
2022-09-22T16:01:08.080Z,1.50
2022-09-22T16:03:41.058Z,3.08
2022-09-22T16:06:13.536Z,3.25
2022-09-22T16:08:44.785Z,3.15
2022-09-22T16:11:14.686Z,2.28
2022-09-22T16:13:43.038Z,1.73
2022-09-22T16:16:12.715Z,1.73
2022-09-22T16:18:42.202Z,1.70
2022-09-22T16:21:20.132Z,3.53
2022-09-22T16:23:49.777Z,2.20
2022-09-22T16:26:17.876Z,4.00
2022-09-22T16:28:45.984Z,6.10
2022-09-22T16:31:15.753Z,5.38
2022-09-22T16:33:44.276Z,5.20
2022-09-22T16:36:12.361Z,6.55
2022-09-22T16:38:40.684Z,3.90
2022-09-22T16:41:20.062Z,5.10
2022-09-22T16:43:48.203Z,5.15
2022-09-22T16:46:30.422Z,2.85
2022-09-22T16:49:00.554Z,3.07
2022-09-22T16:51:29.509Z,2.60
2022-09-22T16:54:01.443Z,3.13
2022-09-22T16:56:33.158Z,2.70
2022-09-22T16:59:03.146Z,3.30
2022-09-22T17:01:32.353Z,2.97
2022-09-22T17:04:00.736Z,4.43
2022-09-22T17:06:29.639Z,4.40
2022-09-22T17:08:59.975Z,5.07
2022-09-22T17:11:38.156Z,4.10
2022-09-22T17:14:12.137Z,3.63
2022-09-22T17:16:43.949Z,3.40
2022-09-22T17:19:16.683Z,3.67
2022-09-22T17:21:46.174Z,4.20
2022-09-22T17:24:14.984Z,3.30
2022-09-22T17:26:48.560Z,3.73
2022-09-22T17:29:17.525Z,5.00
2022-09-22T17:31:48.637Z,4.32
2022-09-22T17:34:17.305Z,4.40
2022-09-22T17:36:45.423Z,4.23
2022-09-22T17:39:14.268Z,4.40
2022-09-22T17:41:45.611Z,4.10
2022-09-22T17:44:21.489Z,3.60
2022-09-22T17:47:08.005Z,2.87
2022-09-22T17:49:53.614Z,3.13
2022-09-22T17:52:39.063Z,3.03
2022-09-22T17:55:14.280Z,2.30
2022-09-22T17:57:44.395Z,2.80
2022-09-22T18:00:19.837Z,2.70
2022-09-22T18:02:49.447Z,2.50
2022-09-22T18:05:20.847Z,3.00
2022-09-22T18:07:53.482Z,2.80
2022-09-22T18:10:22.225Z,3.30
2022-09-22T18:12:50.702Z,2.90
2022-09-22T18:15:20.343Z,3.57
2022-09-22T18:17:49.493Z,5.07
2022-09-22T18:20:20.873Z,4.00
2022-09-22T18:22:50.712Z,3.90
2022-09-22T18:25:23.282Z,3.07
2022-09-22T18:27:52.803Z,2.93
2022-09-22T18:30:22.502Z,2.43
2022-09-22T18:32:50.735Z,2.83
2022-09-22T18:35:18.955Z,2.47
2022-09-22T18:37:47.105Z,2.67
2022-09-22T18:40:17.483Z,2.77
2022-09-22T18:42:46.255Z,2.50
2022-09-22T18:45:15.386Z,3.40
2022-09-22T18:47:47.335Z,4.13
2022-09-22T18:50:16.117Z,4.33
2022-09-22T18:52:45.989Z,4.70
2022-09-22T18:55:19.581Z,4.17
2022-09-22T18:57:48.738Z,4.20
2022-09-22T19:00:21.273Z,4.67
2022-09-22T19:02:51.261Z,5.17
2022-09-22T19:05:23.372Z,6.03
2022-09-22T19:07:51.535Z,5.40
2022-09-22T19:10:21.935Z,6.27
2022-09-22T19:12:50.962Z,5.17
2022-09-22T19:15:19.863Z,4.40
2022-09-22T19:17:50.695Z,3.77
2022-09-22T19:20:22.655Z,3.40
2022-09-22T19:22:52.560Z,2.93
2022-09-22T19:25:21.727Z,3.80
2022-09-22T19:27:50.480Z,4.20
2022-09-22T19:30:22.862Z,3.67
2022-09-22T19:32:54.980Z,4.20
2022-09-22T19:35:23.216Z,3.97
2022-09-22T19:37:51.905Z,3.40
2022-09-22T19:40:20.439Z,3.53
2022-09-22T19:42:49.894Z,3.60
2022-09-22T19:45:19.846Z,3.47
2022-09-22T19:47:48.154Z,3.20
2022-09-22T19:50:22.497Z,3.03
2022-09-22T19:52:50.864Z,2.87
2022-09-22T19:55:21.150Z,2.73
2022-09-22T19:57:52.432Z,2.50
2022-09-22T20:00:26.289Z,2.30
2022-09-22T20:02:58.811Z,2.33
2022-09-22T20:05:31.585Z,2.70
2022-09-22T20:07:59.581Z,2.53
2022-09-22T20:10:27.701Z,2.13
2022-09-22T20:12:55.835Z,2.33
2022-09-22T20:15:24.086Z,2.43
2022-09-22T20:17:52.439Z,2.50
2022-09-22T20:20:23.756Z,2.60
2022-09-22T20:23:00.439Z,2.63
2022-09-22T20:25:31.464Z,2.57
2022-09-22T20:28:00.755Z,2.47
2022-09-22T20:30:28.987Z,2.80
2022-09-22T20:32:57.084Z,2.30
2022-09-22T20:35:25.409Z,2.20
2022-09-22T20:37:59.921Z,2.53
2022-09-22T20:40:29.222Z,2.53
2022-09-22T20:42:57.984Z,2.37
2022-09-22T20:45:26.364Z,2.20
2022-09-22T20:47:56.330Z,2.47
2022-09-22T20:50:24.847Z,2.67
2022-09-22T20:52:55.586Z,2.63
2022-09-22T20:55:23.937Z,2.40
2022-09-22T20:57:52.601Z,2.63
2022-09-22T21:00:20.977Z,2.50
2022-09-22T21:02:49.429Z,3.03
2022-09-22T21:05:18.724Z,2.50
2022-09-22T21:07:46.877Z,2.93
2022-09-22T21:10:34.146Z,2.60
2022-09-22T21:13:04.079Z,2.40
2022-09-22T21:15:32.552Z,2.50
2022-09-22T21:18:00.844Z,2.53
2022-09-22T21:20:28.989Z,2.40
2022-09-22T21:22:57.116Z,2.47
2022-09-22T21:25:26.722Z,3.23
2022-09-22T21:27:54.888Z,2.87
2022-09-22T21:30:23.146Z,2.40
2022-09-22T21:32:51.428Z,2.73
2022-09-22T21:35:20.312Z,3.07
2022-09-22T21:37:48.512Z,3.10
2022-09-22T21:40:18.218Z,2.67
2022-09-22T21:42:47.781Z,3.13
2022-09-22T21:45:16.006Z,3.70
2022-09-22T21:47:44.713Z,3.43
2022-09-22T21:50:12.926Z,3.27
2022-09-22T21:52:40.999Z,3.17
2022-09-22T21:55:09.875Z,4.03
2022-09-22T21:57:37.865Z,4.17
2022-09-22T22:00:09.438Z,3.37
2022-09-22T22:02:57.989Z,3.33
2022-09-22T22:05:27.410Z,3.43
2022-09-22T22:07:55.599Z,3.57
2022-09-22T22:10:24.256Z,3.60
2022-09-22T22:12:52.744Z,3.50
2022-09-22T22:15:23.490Z,3.73
2022-09-22T22:17:51.534Z,3.27
2022-09-22T22:20:19.656Z,3.13
2022-09-22T22:22:47.979Z,3.00
2022-09-22T22:25:17.407Z,3.03
2022-09-22T22:27:45.950Z,3.13
2022-09-22T22:30:14.570Z,3.23
2022-09-22T22:32:44.215Z,3.50
2022-09-22T22:35:12.869Z,3.80
2022-09-22T22:37:40.861Z,3.20
2022-09-22T22:40:09.588Z,3.53
2022-09-22T22:42:37.736Z,3.17
2022-09-22T22:45:06.610Z,3.07
2022-09-22T22:47:35.003Z,3.30
2022-09-22T22:50:04.480Z,3.43
2022-09-22T22:52:32.512Z,3.57
2022-09-22T22:55:00.778Z,4.20
2022-09-22T22:57:29.167Z,3.97
2022-09-22T22:59:58.203Z,3.70
2022-09-22T23:02:26.321Z,3.43
2022-09-22T23:04:54.452Z,4.03
2022-09-22T23:07:23.891Z,4.07
2022-09-22T23:10:06.797Z,3.70
2022-09-22T23:12:35.305Z,4.00
2022-09-22T23:15:03.382Z,3.80
2022-09-22T23:17:32.085Z,3.50
2022-09-22T23:20:00.083Z,4.40
2022-09-22T23:22:30.678Z,4.00
2022-09-22T23:24:59.409Z,4.57
2022-09-22T23:27:28.461Z,3.67
2022-09-22T23:29:57.265Z,4.33
2022-09-22T23:32:25.689Z,3.70
2022-09-22T23:34:53.703Z,3.90
2022-09-22T23:37:21.731Z,4.37
2022-09-22T23:39:51.080Z,3.83
2022-09-22T23:42:19.059Z,3.50
2022-09-22T23:44:47.132Z,3.70
2022-09-22T23:47:16.392Z,4.13
2022-09-22T23:49:45.106Z,4.17
2022-09-22T23:52:13.158Z,3.97
2022-09-22T23:54:41.119Z,3.50
2022-09-22T23:57:10.751Z,3.90
2022-09-22T23:59:38.765Z,3.90
